sensor_id;sensor_type;location;lat;lon;timestamp;temperature;humidity
70986;DHT22;58645;43.068;25.610;2023-01-28T00:01:11;0.70;99.90
70986;DHT22;58645;43.068;25.610;2023-01-28T00:03:38;0.70;99.90
70986;DHT22;58645;43.068;25.610;2023-01-28T00:06:06;0.70;99.90
70986;DHT22;58645;43.068;25.610;2023-01-28T00:08:32;0.70;99.90
70986;DHT22;58645;43.068;25.610;2023-01-28T00:10:59;0.60;99.90
70986;DHT22;58645;43.068;25.610;2023-01-28T00:13:26;0.60;99.90
70986;DHT22;58645;43.068;25.610;2023-01-28T00:16:02;0.60;99.90
70986;DHT22;58645;43.068;25.610;2023-01-28T00:18:33;0.60;99.90
70986;DHT22;58645;43.068;25.610;2023-01-28T00:21:08;0.60;99.90
70986;DHT22;58645;43.068;25.610;2023-01-28T00:23:36;0.50;99.90
70986;DHT22;58645;43.068;25.610;2023-01-28T00:26:22;0.50;99.90
70986;DHT22;58645;43.068;25.610;2023-01-28T00:28:48;0.50;99.90
70986;DHT22;58645;43.068;25.610;2023-01-28T00:31:19;0.50;99.90
70986;DHT22;58645;43.068;25.610;2023-01-28T00:33:47;0.50;99.90
70986;DHT22;58645;43.068;25.610;2023-01-28T00:36:13;0.60;99.90
70986;DHT22;58645;43.068;25.610;2023-01-28T00:38:39;0.60;99.90
70986;DHT22;58645;43.068;25.610;2023-01-28T00:41:14;0.50;99.90
70986;DHT22;58645;43.068;25.610;2023-01-28T00:43:41;0.60;99.90
70986;DHT22;58645;43.068;25.610;2023-01-28T00:46:08;0.60;99.90
70986;DHT22;58645;43.068;25.610;2023-01-28T00:48:35;0.60;99.90
70986;DHT22;58645;43.068;25.610;2023-01-28T00:51:02;0.60;99.90
70986;DHT22;58645;43.068;25.610;2023-01-28T00:53:28;0.50;99.90
70986;DHT22;58645;43.068;25.610;2023-01-28T00:55:54;0.60;99.90
70986;DHT22;58645;43.068;25.610;2023-01-28T00:58:20;0.50;99.90
70986;DHT22;58645;43.068;25.610;2023-01-28T01:00:49;0.50;99.90
70986;DHT22;58645;43.068;25.610;2023-01-28T01:03:16;0.50;99.90
70986;DHT22;58645;43.068;25.610;2023-01-28T01:05:42;0.50;99.90
70986;DHT22;58645;43.068;25.610;2023-01-28T01:08:07;0.60;99.90
70986;DHT22;58645;43.068;25.610;2023-01-28T01:10:33;0.60;99.90
70986;DHT22;58645;43.068;25.610;2023-01-28T01:13:00;0.60;99.90
70986;DHT22;58645;43.068;25.610;2023-01-28T01:15:25;0.60;99.90
70986;DHT22;58645;43.068;25.610;2023-01-28T01:17:51;0.60;99.90
70986;DHT22;58645;43.068;25.610;2023-01-28T01:20:20;0.60;99.90
70986;DHT22;58645;43.068;25.610;2023-01-28T01:22:46;0.60;99.90
70986;DHT22;58645;43.068;25.610;2023-01-28T01:25:13;0.60;99.90
70986;DHT22;58645;43.068;25.610;2023-01-28T01:27:39;0.60;99.90
70986;DHT22;58645;43.068;25.610;2023-01-28T01:30:06;0.50;99.90
70986;DHT22;58645;43.068;25.610;2023-01-28T01:32:33;0.50;99.90
70986;DHT22;58645;43.068;25.610;2023-01-28T01:35:04;0.50;99.90
70986;DHT22;58645;43.068;25.610;2023-01-28T01:37:31;0.50;99.90
70986;DHT22;58645;43.068;25.610;2023-01-28T01:39:57;0.50;99.90
70986;DHT22;58645;43.068;25.610;2023-01-28T01:42:24;0.50;99.90
70986;DHT22;58645;43.068;25.610;2023-01-28T01:45:03;0.40;99.90
70986;DHT22;58645;43.068;25.610;2023-01-28T01:50:30;0.40;99.90
70986;DHT22;58645;43.068;25.610;2023-01-28T01:53:03;0.50;99.90
70986;DHT22;58645;43.068;25.610;2023-01-28T01:55:34;0.50;99.90
70986;DHT22;58645;43.068;25.610;2023-01-28T01:58:06;0.50;99.90
70986;DHT22;58645;43.068;25.610;2023-01-28T02:00:32;0.50;99.90
70986;DHT22;58645;43.068;25.610;2023-01-28T02:02:58;0.50;99.90
70986;DHT22;58645;43.068;25.610;2023-01-28T02:05:24;0.60;99.90
70986;DHT22;58645;43.068;25.610;2023-01-28T02:07:53;0.60;99.90
70986;DHT22;58645;43.068;25.610;2023-01-28T02:10:20;0.60;99.90
70986;DHT22;58645;43.068;25.610;2023-01-28T02:12:52;0.70;99.90
70986;DHT22;58645;43.068;25.610;2023-01-28T02:15:22;0.60;99.90
70986;DHT22;58645;43.068;25.610;2023-01-28T02:17:50;0.70;99.90
70986;DHT22;58645;43.068;25.610;2023-01-28T02:20:27;0.60;99.90
70986;DHT22;58645;43.068;25.610;2023-01-28T02:23:20;0.60;99.90
70986;DHT22;58645;43.068;25.610;2023-01-28T02:31:13;0.50;99.90
70986;DHT22;58645;43.068;25.610;2023-01-28T02:39:26;0.60;99.90
70986;DHT22;58645;43.068;25.610;2023-01-28T02:44:23;0.70;99.90
70986;DHT22;58645;43.068;25.610;2023-01-28T02:46:51;0.70;99.90
70986;DHT22;58645;43.068;25.610;2023-01-28T02:49:44;0.70;99.90
70986;DHT22;58645;43.068;25.610;2023-01-28T03:05:43;0.70;99.90
70986;DHT22;58645;43.068;25.610;2023-01-28T03:08:38;0.70;99.90
70986;DHT22;58645;43.068;25.610;2023-01-28T03:11:24;0.70;99.90
70986;DHT22;58645;43.068;25.610;2023-01-28T03:14:10;0.70;99.90
70986;DHT22;58645;43.068;25.610;2023-01-28T03:16:58;0.60;99.90
70986;DHT22;58645;43.068;25.610;2023-01-28T03:19:43;0.60;99.90
70986;DHT22;58645;43.068;25.610;2023-01-28T03:22:28;0.60;99.90
70986;DHT22;58645;43.068;25.610;2023-01-28T03:25:18;0.60;99.90
70986;DHT22;58645;43.068;25.610;2023-01-28T03:28:06;0.60;99.90
70986;DHT22;58645;43.068;25.610;2023-01-28T03:31:03;0.60;99.90
70986;DHT22;58645;43.068;25.610;2023-01-28T03:33:50;0.60;99.90
70986;DHT22;58645;43.068;25.610;2023-01-28T03:36:35;0.60;99.90
70986;DHT22;58645;43.068;25.610;2023-01-28T03:39:23;0.70;99.90
70986;DHT22;58645;43.068;25.610;2023-01-28T03:42:07;0.60;99.90
70986;DHT22;58645;43.068;25.610;2023-01-28T03:44:33;0.60;99.90
70986;DHT22;58645;43.068;25.610;2023-01-28T03:47:28;0.60;99.90
70986;DHT22;58645;43.068;25.610;2023-01-28T03:49:55;0.60;99.90
70986;DHT22;58645;43.068;25.610;2023-01-28T03:52:26;0.70;99.90
70986;DHT22;58645;43.068;25.610;2023-01-28T03:54:52;0.70;99.90
70986;DHT22;58645;43.068;25.610;2023-01-28T03:57:23;0.70;99.90
70986;DHT22;58645;43.068;25.610;2023-01-28T03:59:49;0.70;99.90
70986;DHT22;58645;43.068;25.610;2023-01-28T04:02:20;0.60;99.90
70986;DHT22;58645;43.068;25.610;2023-01-28T04:04:47;0.50;99.90
70986;DHT22;58645;43.068;25.610;2023-01-28T04:07:13;0.50;99.90
70986;DHT22;58645;43.068;25.610;2023-01-28T04:09:40;0.50;99.90
70986;DHT22;58645;43.068;25.610;2023-01-28T04:12:06;0.50;99.90
70986;DHT22;58645;43.068;25.610;2023-01-28T04:14:32;0.50;99.90
70986;DHT22;58645;43.068;25.610;2023-01-28T04:16:58;0.50;99.90
70986;DHT22;58645;43.068;25.610;2023-01-28T04:19:25;0.50;99.90
70986;DHT22;58645;43.068;25.610;2023-01-28T04:21:51;0.60;99.90
70986;DHT22;58645;43.068;25.610;2023-01-28T04:24:21;0.60;99.90
70986;DHT22;58645;43.068;25.610;2023-01-28T04:26:47;0.60;99.90
70986;DHT22;58645;43.068;25.610;2023-01-28T04:29:13;0.70;99.90
70986;DHT22;58645;43.068;25.610;2023-01-28T04:31:39;0.70;99.90
70986;DHT22;58645;43.068;25.610;2023-01-28T04:34:04;0.70;99.90
70986;DHT22;58645;43.068;25.610;2023-01-28T04:36:30;0.70;99.90
70986;DHT22;58645;43.068;25.610;2023-01-28T04:38:56;0.70;99.90
70986;DHT22;58645;43.068;25.610;2023-01-28T04:41:22;0.70;99.90
70986;DHT22;58645;43.068;25.610;2023-01-28T04:43:47;0.80;99.90
70986;DHT22;58645;43.068;25.610;2023-01-28T04:46:14;0.80;99.90
70986;DHT22;58645;43.068;25.610;2023-01-28T04:48:40;0.80;99.90
70986;DHT22;58645;43.068;25.610;2023-01-28T04:51:06;0.70;99.90
70986;DHT22;58645;43.068;25.610;2023-01-28T04:53:32;0.70;99.90
70986;DHT22;58645;43.068;25.610;2023-01-28T04:55:58;0.70;99.90
70986;DHT22;58645;43.068;25.610;2023-01-28T04:58:24;0.70;99.90
70986;DHT22;58645;43.068;25.610;2023-01-28T05:00:55;0.60;99.90
70986;DHT22;58645;43.068;25.610;2023-01-28T05:03:21;0.70;99.90
70986;DHT22;58645;43.068;25.610;2023-01-28T05:05:46;0.70;99.90
70986;DHT22;58645;43.068;25.610;2023-01-28T05:08:12;0.70;99.90
70986;DHT22;58645;43.068;25.610;2023-01-28T05:10:38;0.70;99.90
70986;DHT22;58645;43.068;25.610;2023-01-28T05:13:05;0.50;99.90
70986;DHT22;58645;43.068;25.610;2023-01-28T05:15:31;0.50;99.90
70986;DHT22;58645;43.068;25.610;2023-01-28T05:17:56;0.50;99.90
70986;DHT22;58645;43.068;25.610;2023-01-28T05:20:22;0.50;99.90
70986;DHT22;58645;43.068;25.610;2023-01-28T05:22:48;0.50;99.90
70986;DHT22;58645;43.068;25.610;2023-01-28T05:25:14;0.50;99.90
70986;DHT22;58645;43.068;25.610;2023-01-28T05:27:40;0.50;99.90
70986;DHT22;58645;43.068;25.610;2023-01-28T05:30:06;0.60;99.90
70986;DHT22;58645;43.068;25.610;2023-01-28T05:32:32;0.60;99.90
70986;DHT22;58645;43.068;25.610;2023-01-28T05:34:58;0.50;99.90
70986;DHT22;58645;43.068;25.610;2023-01-28T05:37:24;0.50;99.90
70986;DHT22;58645;43.068;25.610;2023-01-28T05:39:49;0.50;99.90
70986;DHT22;58645;43.068;25.610;2023-01-28T05:42:15;0.50;99.90
70986;DHT22;58645;43.068;25.610;2023-01-28T05:44:43;0.50;99.90
70986;DHT22;58645;43.068;25.610;2023-01-28T05:47:08;0.50;99.90
70986;DHT22;58645;43.068;25.610;2023-01-28T05:49:34;0.50;99.90
70986;DHT22;58645;43.068;25.610;2023-01-28T05:52:00;0.50;99.90
70986;DHT22;58645;43.068;25.610;2023-01-28T05:54:27;0.50;99.90
70986;DHT22;58645;43.068;25.610;2023-01-28T05:56:53;0.50;99.90
70986;DHT22;58645;43.068;25.610;2023-01-28T05:59:19;0.50;99.90
70986;DHT22;58645;43.068;25.610;2023-01-28T06:01:45;0.50;99.90
70986;DHT22;58645;43.068;25.610;2023-01-28T06:04:10;0.50;99.90
70986;DHT22;58645;43.068;25.610;2023-01-28T06:06:36;0.50;99.90
70986;DHT22;58645;43.068;25.610;2023-01-28T06:09:02;0.50;99.90
70986;DHT22;58645;43.068;25.610;2023-01-28T06:11:27;0.40;99.90
70986;DHT22;58645;43.068;25.610;2023-01-28T06:13:53;0.40;99.90
70986;DHT22;58645;43.068;25.610;2023-01-28T06:16:19;0.40;99.90
70986;DHT22;58645;43.068;25.610;2023-01-28T06:18:45;0.40;99.90
70986;DHT22;58645;43.068;25.610;2023-01-28T06:21:10;0.40;99.90
70986;DHT22;58645;43.068;25.610;2023-01-28T06:23:36;0.50;99.90
70986;DHT22;58645;43.068;25.610;2023-01-28T06:26:02;0.50;99.90
70986;DHT22;58645;43.068;25.610;2023-01-28T06:28:28;0.60;99.90
70986;DHT22;58645;43.068;25.610;2023-01-28T06:30:53;0.60;99.90
70986;DHT22;58645;43.068;25.610;2023-01-28T06:33:20;0.60;99.90
70986;DHT22;58645;43.068;25.610;2023-01-28T06:35:46;0.50;99.90
70986;DHT22;58645;43.068;25.610;2023-01-28T06:38:13;0.40;99.90
70986;DHT22;58645;43.068;25.610;2023-01-28T06:40:39;0.40;99.90
70986;DHT22;58645;43.068;25.610;2023-01-28T06:43:05;0.40;99.90
70986;DHT22;58645;43.068;25.610;2023-01-28T06:45:32;0.40;99.90
70986;DHT22;58645;43.068;25.610;2023-01-28T06:47:58;0.40;99.90
70986;DHT22;58645;43.068;25.610;2023-01-28T06:50:24;0.40;99.90
70986;DHT22;58645;43.068;25.610;2023-01-28T06:52:49;0.40;99.90
70986;DHT22;58645;43.068;25.610;2023-01-28T06:55:15;0.40;99.90
70986;DHT22;58645;43.068;25.610;2023-01-28T06:57:41;0.40;99.90
70986;DHT22;58645;43.068;25.610;2023-01-28T07:00:09;0.40;99.90
70986;DHT22;58645;43.068;25.610;2023-01-28T07:02:36;0.40;99.90
70986;DHT22;58645;43.068;25.610;2023-01-28T07:05:03;0.50;99.90
70986;DHT22;58645;43.068;25.610;2023-01-28T07:07:28;0.60;99.90
70986;DHT22;58645;43.068;25.610;2023-01-28T07:09:54;0.60;99.90
70986;DHT22;58645;43.068;25.610;2023-01-28T07:12:20;0.70;99.90
70986;DHT22;58645;43.068;25.610;2023-01-28T07:14:45;0.60;99.90
70986;DHT22;58645;43.068;25.610;2023-01-28T07:17:11;0.60;99.90
70986;DHT22;58645;43.068;25.610;2023-01-28T07:19:37;0.60;99.90
70986;DHT22;58645;43.068;25.610;2023-01-28T07:22:03;0.70;99.90
70986;DHT22;58645;43.068;25.610;2023-01-28T07:24:29;0.70;99.90
70986;DHT22;58645;43.068;25.610;2023-01-28T07:26:55;0.70;99.90
70986;DHT22;58645;43.068;25.610;2023-01-28T07:29:21;0.90;99.90
70986;DHT22;58645;43.068;25.610;2023-01-28T07:31:47;0.80;99.90
70986;DHT22;58645;43.068;25.610;2023-01-28T07:34:12;0.70;99.90
70986;DHT22;58645;43.068;25.610;2023-01-28T07:36:38;0.70;99.90
70986;DHT22;58645;43.068;25.610;2023-01-28T07:39:04;0.80;99.90
70986;DHT22;58645;43.068;25.610;2023-01-28T07:41:32;0.90;99.90
70986;DHT22;58645;43.068;25.610;2023-01-28T07:43:58;0.90;99.90
70986;DHT22;58645;43.068;25.610;2023-01-28T07:46:23;0.90;99.90
70986;DHT22;58645;43.068;25.610;2023-01-28T07:48:49;0.90;99.90
70986;DHT22;58645;43.068;25.610;2023-01-28T07:51:15;1.00;99.90
70986;DHT22;58645;43.068;25.610;2023-01-28T07:53:41;1.10;99.90
70986;DHT22;58645;43.068;25.610;2023-01-28T07:56:07;1.20;99.90
70986;DHT22;58645;43.068;25.610;2023-01-28T07:58:32;1.20;99.90
70986;DHT22;58645;43.068;25.610;2023-01-28T08:01:00;1.20;99.90
70986;DHT22;58645;43.068;25.610;2023-01-28T08:03:26;1.20;99.90
70986;DHT22;58645;43.068;25.610;2023-01-28T08:05:55;1.20;99.90
70986;DHT22;58645;43.068;25.610;2023-01-28T08:08:24;1.30;99.90
70986;DHT22;58645;43.068;25.610;2023-01-28T08:10:51;1.40;99.90
70986;DHT22;58645;43.068;25.610;2023-01-28T08:13:18;1.40;99.90
70986;DHT22;58645;43.068;25.610;2023-01-28T08:15:45;1.50;99.90
70986;DHT22;58645;43.068;25.610;2023-01-28T08:18:12;1.50;99.90
70986;DHT22;58645;43.068;25.610;2023-01-28T08:20:39;1.60;99.90
70986;DHT22;58645;43.068;25.610;2023-01-28T08:25:32;1.70;99.90
70986;DHT22;58645;43.068;25.610;2023-01-28T08:27:58;1.70;99.90
70986;DHT22;58645;43.068;25.610;2023-01-28T08:30:24;1.60;99.90
70986;DHT22;58645;43.068;25.610;2023-01-28T08:32:49;1.70;99.90
70986;DHT22;58645;43.068;25.610;2023-01-28T08:35:15;1.70;99.90
70986;DHT22;58645;43.068;25.610;2023-01-28T08:37:41;1.70;99.90
70986;DHT22;58645;43.068;25.610;2023-01-28T08:40:07;1.70;99.90
70986;DHT22;58645;43.068;25.610;2023-01-28T08:42:33;1.80;99.90
70986;DHT22;58645;43.068;25.610;2023-01-28T08:44:59;1.70;99.90
70986;DHT22;58645;43.068;25.610;2023-01-28T08:47:25;1.70;99.90
70986;DHT22;58645;43.068;25.610;2023-01-28T08:49:50;1.60;99.90
70986;DHT22;58645;43.068;25.610;2023-01-28T08:52:16;1.70;99.90
70986;DHT22;58645;43.068;25.610;2023-01-28T08:54:42;1.70;99.90
70986;DHT22;58645;43.068;25.610;2023-01-28T08:57:07;1.80;99.90
70986;DHT22;58645;43.068;25.610;2023-01-28T08:59:33;1.70;99.90
70986;DHT22;58645;43.068;25.610;2023-01-28T09:01:59;1.60;99.90
70986;DHT22;58645;43.068;25.610;2023-01-28T09:04:25;1.60;99.90
70986;DHT22;58645;43.068;25.610;2023-01-28T09:06:50;1.50;99.90
70986;DHT22;58645;43.068;25.610;2023-01-28T09:09:16;1.50;99.90
70986;DHT22;58645;43.068;25.610;2023-01-28T09:11:42;1.60;99.90
70986;DHT22;58645;43.068;25.610;2023-01-28T09:14:08;1.60;99.90
70986;DHT22;58645;43.068;25.610;2023-01-28T09:16:33;1.70;99.90
70986;DHT22;58645;43.068;25.610;2023-01-28T09:18:59;1.60;99.90
70986;DHT22;58645;43.068;25.610;2023-01-28T09:21:25;1.60;99.90
70986;DHT22;58645;43.068;25.610;2023-01-28T09:23:50;1.60;99.90
70986;DHT22;58645;43.068;25.610;2023-01-28T09:26:16;1.50;99.90
70986;DHT22;58645;43.068;25.610;2023-01-28T09:28:42;1.50;99.90
70986;DHT22;58645;43.068;25.610;2023-01-28T09:31:10;1.50;99.90
70986;DHT22;58645;43.068;25.610;2023-01-28T09:33:37;1.60;99.90
70986;DHT22;58645;43.068;25.610;2023-01-28T09:36:05;1.60;99.90
70986;DHT22;58645;43.068;25.610;2023-01-28T09:38:32;1.60;99.90
70986;DHT22;58645;43.068;25.610;2023-01-28T09:41:00;1.60;99.90
70986;DHT22;58645;43.068;25.610;2023-01-28T09:46:09;1.70;99.90
70986;DHT22;58645;43.068;25.610;2023-01-28T09:48:48;1.80;99.90
70986;DHT22;58645;43.068;25.610;2023-01-28T09:51:38;1.80;99.90
70986;DHT22;58645;43.068;25.610;2023-01-28T09:54:21;1.80;99.90
70986;DHT22;58645;43.068;25.610;2023-01-28T09:56:53;1.80;99.90
70986;DHT22;58645;43.068;25.610;2023-01-28T09:59:23;1.80;99.90
70986;DHT22;58645;43.068;25.610;2023-01-28T10:10:10;1.70;99.90
70986;DHT22;58645;43.068;25.610;2023-01-28T10:12:47;1.60;99.90
70986;DHT22;58645;43.068;25.610;2023-01-28T10:18:35;1.60;99.90
70986;DHT22;58645;43.068;25.610;2023-01-28T10:21:30;1.60;99.90
70986;DHT22;58645;43.068;25.610;2023-01-28T10:26:39;1.70;99.90
70986;DHT22;58645;43.068;25.610;2023-01-28T10:29:17;1.70;99.90
70986;DHT22;58645;43.068;25.610;2023-01-28T10:31:54;1.70;99.90
70986;DHT22;58645;43.068;25.610;2023-01-28T10:34:22;1.80;99.90
70986;DHT22;58645;43.068;25.610;2023-01-28T10:36:48;1.90;99.90
70986;DHT22;58645;43.068;25.610;2023-01-28T10:39:17;1.90;99.90
70986;DHT22;58645;43.068;25.610;2023-01-28T10:41:44;1.90;99.90
70986;DHT22;58645;43.068;25.610;2023-01-28T10:44:29;2.00;99.90
70986;DHT22;58645;43.068;25.610;2023-01-28T10:47:00;2.00;99.90
70986;DHT22;58645;43.068;25.610;2023-01-28T10:49:29;2.10;99.90
70986;DHT22;58645;43.068;25.610;2023-01-28T10:51:55;2.20;99.90
70986;DHT22;58645;43.068;25.610;2023-01-28T10:54:26;2.30;99.90
70986;DHT22;58645;43.068;25.610;2023-01-28T10:56:56;2.40;99.90
70986;DHT22;58645;43.068;25.610;2023-01-28T10:59:33;2.40;99.90
70986;DHT22;58645;43.068;25.610;2023-01-28T11:02:28;2.30;99.90
70986;DHT22;58645;43.068;25.610;2023-01-28T11:05:13;2.30;99.90
70986;DHT22;58645;43.068;25.610;2023-01-28T11:07:40;2.40;99.90
70986;DHT22;58645;43.068;25.610;2023-01-28T11:10:29;2.40;99.90
70986;DHT22;58645;43.068;25.610;2023-01-28T11:13:02;2.40;99.90
70986;DHT22;58645;43.068;25.610;2023-01-28T11:15:28;2.30;99.90
70986;DHT22;58645;43.068;25.610;2023-01-28T11:18:17;2.30;99.90
70986;DHT22;58645;43.068;25.610;2023-01-28T11:20:50;2.40;99.90
70986;DHT22;58645;43.068;25.610;2023-01-28T11:23:32;2.30;99.90
70986;DHT22;58645;43.068;25.610;2023-01-28T11:26:06;2.20;99.90
70986;DHT22;58645;43.068;25.610;2023-01-28T11:28:33;2.20;99.90
70986;DHT22;58645;43.068;25.610;2023-01-28T11:31:00;2.20;99.90
70986;DHT22;58645;43.068;25.610;2023-01-28T11:33:35;2.30;99.90
70986;DHT22;58645;43.068;25.610;2023-01-28T11:36:14;2.30;99.90
70986;DHT22;58645;43.068;25.610;2023-01-28T11:38:55;2.30;99.90
70986;DHT22;58645;43.068;25.610;2023-01-28T11:41:39;2.20;99.90
70986;DHT22;58645;43.068;25.610;2023-01-28T11:44:16;2.20;99.90
70986;DHT22;58645;43.068;25.610;2023-01-28T11:52:15;2.30;99.90
70986;DHT22;58645;43.068;25.610;2023-01-28T11:55:02;2.30;99.90
70986;DHT22;58645;43.068;25.610;2023-01-28T11:57:49;2.40;99.90
70986;DHT22;58645;43.068;25.610;2023-01-28T12:00:30;2.50;99.90
70986;DHT22;58645;43.068;25.610;2023-01-28T12:03:08;2.40;99.90
70986;DHT22;58645;43.068;25.610;2023-01-28T12:28:56;2.60;99.90
70986;DHT22;58645;43.068;25.610;2023-01-28T12:32:07;2.60;99.90
70986;DHT22;58645;43.068;25.610;2023-01-28T12:38:04;2.40;99.90
70986;DHT22;58645;43.068;25.610;2023-01-28T12:40:52;2.40;99.90
70986;DHT22;58645;43.068;25.610;2023-01-28T12:51:51;2.30;99.90
70986;DHT22;58645;43.068;25.610;2023-01-28T12:57:17;2.30;99.90
70986;DHT22;58645;43.068;25.610;2023-01-28T13:02:37;2.20;99.90
70986;DHT22;58645;43.068;25.610;2023-01-28T13:05:17;2.30;99.90
70986;DHT22;58645;43.068;25.610;2023-01-28T13:07:53;2.40;99.90
70986;DHT22;58645;43.068;25.610;2023-01-28T13:10:26;2.50;99.90
70986;DHT22;58645;43.068;25.610;2023-01-28T13:12:53;2.40;99.90
70986;DHT22;58645;43.068;25.610;2023-01-28T13:15:20;2.50;99.90
70986;DHT22;58645;43.068;25.610;2023-01-28T13:17:57;2.50;99.90
70986;DHT22;58645;43.068;25.610;2023-01-28T13:20:48;2.50;99.90
70986;DHT22;58645;43.068;25.610;2023-01-28T13:23:25;2.60;99.90
70986;DHT22;58645;43.068;25.610;2023-01-28T13:25:53;2.50;99.90
70986;DHT22;58645;43.068;25.610;2023-01-28T13:28:38;2.40;99.90
70986;DHT22;58645;43.068;25.610;2023-01-28T13:31:06;2.40;99.90
70986;DHT22;58645;43.068;25.610;2023-01-28T13:33:38;2.40;99.90
70986;DHT22;58645;43.068;25.610;2023-01-28T13:36:26;2.40;99.90
70986;DHT22;58645;43.068;25.610;2023-01-28T13:39:16;2.30;99.90
70986;DHT22;58645;43.068;25.610;2023-01-28T13:41:45;2.30;99.90
70986;DHT22;58645;43.068;25.610;2023-01-28T13:44:32;2.20;99.90
70986;DHT22;58645;43.068;25.610;2023-01-28T13:52:05;2.20;99.90
70986;DHT22;58645;43.068;25.610;2023-01-28T13:54:35;2.20;99.90
70986;DHT22;58645;43.068;25.610;2023-01-28T14:18:42;2.20;99.90
70986;DHT22;58645;43.068;25.610;2023-01-28T14:21:17;2.20;99.90
70986;DHT22;58645;43.068;25.610;2023-01-28T14:23:50;2.20;99.90
70986;DHT22;58645;43.068;25.610;2023-01-28T14:31:35;2.10;99.90
70986;DHT22;58645;43.068;25.610;2023-01-28T14:36:47;2.10;99.90
70986;DHT22;58645;43.068;25.610;2023-01-28T14:39:19;2.10;99.90
70986;DHT22;58645;43.068;25.610;2023-01-28T14:41:50;2.00;99.90
70986;DHT22;58645;43.068;25.610;2023-01-28T14:44:35;2.00;99.90
70986;DHT22;58645;43.068;25.610;2023-01-28T14:47:24;1.90;99.90
70986;DHT22;58645;43.068;25.610;2023-01-28T14:55:35;2.00;99.90
70986;DHT22;58645;43.068;25.610;2023-01-28T14:58:10;2.00;99.90
70986;DHT22;58645;43.068;25.610;2023-01-28T15:00:51;1.90;99.90
70986;DHT22;58645;43.068;25.610;2023-01-28T15:03:18;2.00;99.90
70986;DHT22;58645;43.068;25.610;2023-01-28T15:05:44;2.00;99.90
70986;DHT22;58645;43.068;25.610;2023-01-28T15:08:22;2.00;99.90
70986;DHT22;58645;43.068;25.610;2023-01-28T15:10:50;2.00;99.90
70986;DHT22;58645;43.068;25.610;2023-01-28T15:13:27;1.90;99.90
70986;DHT22;58645;43.068;25.610;2023-01-28T15:15:54;1.90;99.90
70986;DHT22;58645;43.068;25.610;2023-01-28T15:18:30;1.90;99.90
70986;DHT22;58645;43.068;25.610;2023-01-28T15:20:57;1.90;99.90
70986;DHT22;58645;43.068;25.610;2023-01-28T15:23:38;1.90;99.90
70986;DHT22;58645;43.068;25.610;2023-01-28T15:26:13;1.90;99.90
70986;DHT22;58645;43.068;25.610;2023-01-28T15:28:42;1.80;99.90
70986;DHT22;58645;43.068;25.610;2023-01-28T15:31:19;1.80;99.90
70986;DHT22;58645;43.068;25.610;2023-01-28T15:33:45;1.70;99.90
70986;DHT22;58645;43.068;25.610;2023-01-28T15:36:19;1.60;99.90
70986;DHT22;58645;43.068;25.610;2023-01-28T15:38:45;1.60;99.90
70986;DHT22;58645;43.068;25.610;2023-01-28T15:41:18;1.70;99.90
70986;DHT22;58645;43.068;25.610;2023-01-28T15:43:47;1.60;99.90
70986;DHT22;58645;43.068;25.610;2023-01-28T15:46:14;1.60;99.90
70986;DHT22;58645;43.068;25.610;2023-01-28T15:48:56;1.60;99.90
70986;DHT22;58645;43.068;25.610;2023-01-28T15:51:25;1.60;99.90
70986;DHT22;58645;43.068;25.610;2023-01-28T15:54:03;1.60;99.90
70986;DHT22;58645;43.068;25.610;2023-01-28T15:56:30;1.50;99.90
70986;DHT22;58645;43.068;25.610;2023-01-28T16:01:45;1.60;99.90
70986;DHT22;58645;43.068;25.610;2023-01-28T16:04:28;1.60;99.90
70986;DHT22;58645;43.068;25.610;2023-01-28T16:06:56;1.60;99.90
70986;DHT22;58645;43.068;25.610;2023-01-28T16:09:25;1.60;99.90
70986;DHT22;58645;43.068;25.610;2023-01-28T16:11:51;1.60;99.90
70986;DHT22;58645;43.068;25.610;2023-01-28T16:14:27;1.60;99.90
70986;DHT22;58645;43.068;25.610;2023-01-28T16:16:55;1.60;99.90
70986;DHT22;58645;43.068;25.610;2023-01-28T16:19:39;1.60;99.90
70986;DHT22;58645;43.068;25.610;2023-01-28T16:22:06;1.60;99.90
70986;DHT22;58645;43.068;25.610;2023-01-28T16:24:33;1.60;99.90
70986;DHT22;58645;43.068;25.610;2023-01-28T16:27:19;1.70;99.90
70986;DHT22;58645;43.068;25.610;2023-01-28T16:29:45;1.70;99.90
70986;DHT22;58645;43.068;25.610;2023-01-28T16:32:35;1.70;99.90
70986;DHT22;58645;43.068;25.610;2023-01-28T16:35:03;1.70;99.90
70986;DHT22;58645;43.068;25.610;2023-01-28T16:37:29;1.70;99.90
70986;DHT22;58645;43.068;25.610;2023-01-28T16:39:55;1.70;99.90
70986;DHT22;58645;43.068;25.610;2023-01-28T16:42:21;1.70;99.90
70986;DHT22;58645;43.068;25.610;2023-01-28T16:44:47;1.70;99.90
70986;DHT22;58645;43.068;25.610;2023-01-28T16:47:12;1.70;99.90
70986;DHT22;58645;43.068;25.610;2023-01-28T16:49:38;1.60;99.90
70986;DHT22;58645;43.068;25.610;2023-01-28T16:52:05;1.70;99.90
70986;DHT22;58645;43.068;25.610;2023-01-28T16:54:32;1.70;99.90
70986;DHT22;58645;43.068;25.610;2023-01-28T16:56:58;1.70;99.90
70986;DHT22;58645;43.068;25.610;2023-01-28T16:59:24;1.60;99.90
70986;DHT22;58645;43.068;25.610;2023-01-28T17:01:49;1.60;99.90
70986;DHT22;58645;43.068;25.610;2023-01-28T17:04:15;1.60;99.90
70986;DHT22;58645;43.068;25.610;2023-01-28T17:06:42;1.60;99.90
70986;DHT22;58645;43.068;25.610;2023-01-28T17:09:09;1.60;99.90
70986;DHT22;58645;43.068;25.610;2023-01-28T17:11:35;1.60;99.90
70986;DHT22;58645;43.068;25.610;2023-01-28T17:14:01;1.50;99.90
70986;DHT22;58645;43.068;25.610;2023-01-28T17:16:27;1.50;99.90
70986;DHT22;58645;43.068;25.610;2023-01-28T17:18:53;1.50;99.90
70986;DHT22;58645;43.068;25.610;2023-01-28T17:21:19;1.50;99.90
70986;DHT22;58645;43.068;25.610;2023-01-28T17:23:45;1.50;99.90
70986;DHT22;58645;43.068;25.610;2023-01-28T17:26:13;1.50;99.90
70986;DHT22;58645;43.068;25.610;2023-01-28T17:28:39;1.50;99.90
70986;DHT22;58645;43.068;25.610;2023-01-28T17:31:09;1.50;99.90
70986;DHT22;58645;43.068;25.610;2023-01-28T17:33:37;1.50;99.90
70986;DHT22;58645;43.068;25.610;2023-01-28T17:36:03;1.50;99.90
70986;DHT22;58645;43.068;25.610;2023-01-28T17:38:29;1.50;99.90
70986;DHT22;58645;43.068;25.610;2023-01-28T17:41:06;1.50;99.90
70986;DHT22;58645;43.068;25.610;2023-01-28T17:43:33;1.50;99.90
70986;DHT22;58645;43.068;25.610;2023-01-28T17:46:00;1.50;99.90
70986;DHT22;58645;43.068;25.610;2023-01-28T17:48:26;1.50;99.90
70986;DHT22;58645;43.068;25.610;2023-01-28T17:50:57;1.50;99.90
70986;DHT22;58645;43.068;25.610;2023-01-28T17:53:22;1.60;99.90
70986;DHT22;58645;43.068;25.610;2023-01-28T17:55:48;1.60;99.90
70986;DHT22;58645;43.068;25.610;2023-01-28T17:58:14;1.60;99.90
70986;DHT22;58645;43.068;25.610;2023-01-28T18:00:40;1.60;99.90
70986;DHT22;58645;43.068;25.610;2023-01-28T18:03:05;1.60;99.90
70986;DHT22;58645;43.068;25.610;2023-01-28T18:05:31;1.60;99.90
70986;DHT22;58645;43.068;25.610;2023-01-28T18:07:57;1.60;99.90